PWSweather.com
Personal Weather Stations
Station Observations
REUBENS
Camas Prairie, Reubens, ID 83548

Camas PrairieReubens, ID 83548

Lat: 46.35417, Lon: -116.53167

Elevation: 3480

Station Type: Davis VantagePro 2

http://www.theobrienranch.com/wx/wx.htm

High Low Average
Temperature 50.7°F10.4°F 35.6°F2.0°F 42.0°F5.6°F
Dew Point 45.5°F7.5°F 34.0°F1.1°F 39.0°F3.9°F
Winds 15.0 mph WSW24.1 mph WSW Calm Calm 2.2 mph 3.5 mph
Wind Gusts 19.6 mph31.5 mph -- 3.1 mph5.0 mph
Humidity 96% 75% 89%
Pressure 30.11 in1019.60 in 29.92 in1013.20 in -
Precipitation 0.21 in5.30 in - -
Hour Temp Dew Point Humidity Winds Wind Gusts Pressure Precip Precip Rate Daily Precip Total
12:00 AM 40.7°F4.8°C 39.4°F4.1°C 95% Calm Calm -- 29.92 in1013.2 mb - 0.00 in0.0 mm 0.00 in0.0 mm
12:15 AM 40.5°F4.7°C 38.9°F3.8°C 94% Calm Calm -- 29.93 in1013.5 mb - 0.00 in0.0 mm 0.00 in0.0 mm
12:30 AM 39.6°F4.2°C 38.3°F3.5°C 95% 2.3 mph NE3.7 kmh NE 3.5 mph5.6 kmh 29.94 in1013.9 mb - 0.00 in0.0 mm 0.00 in0.0 mm
12:45 AM 40.4°F4.7°C 39.1°F3.9°C 95% 1.2 mph NE1.9 kmh NE 1.2 mph1.9 kmh 29.95 in1014.2 mb - 0.00 in0.0 mm 0.00 in0.0 mm
01:00 AM 40.6°F4.8°C 39.2°F4.0°C 95% Calm Calm -- 29.94 in1013.9 mb - 0.00 in0.0 mm 0.00 in0.0 mm
01:15 AM 39.3°F4.1°C 38.0°F3.3°C 95% 2.3 mph SE3.7 kmh SE 3.5 mph5.6 kmh 29.95 in1014.2 mb - 0.00 in0.0 mm 0.00 in0.0 mm
01:30 AM 38.8°F3.8°C 37.5°F3.1°C 95% Calm Calm -- 29.95 in1014.2 mb - 0.00 in0.0 mm 0.00 in0.0 mm
01:45 AM 39.1°F3.9°C 37.8°F3.2°C 95% Calm Calm -- 29.96 in1014.6 mb - 0.00 in0.0 mm 0.00 in0.0 mm
02:00 AM 39.4°F4.1°C 38.0°F3.3°C 95% Calm Calm -- 29.96 in1014.6 mb - 0.00 in0.0 mm 0.00 in0.0 mm
02:15 AM 39.6°F4.2°C 38.6°F3.7°C 96% Calm Calm -- 29.95 in1014.2 mb - 0.00 in0.0 mm 0.00 in0.0 mm
02:30 AM 39.1°F3.9°C 38.1°F3.4°C 96% 3.5 mph SE5.6 kmh SE 3.5 mph5.6 kmh 29.95 in1014.2 mb - 0.00 in0.0 mm 0.00 in0.0 mm
02:45 AM 38.4°F3.6°C 37.4°F3.0°C 96% Calm Calm -- 29.96 in1014.6 mb - 0.00 in0.0 mm 0.00 in0.0 mm
03:00 AM 38.9°F3.8°C 37.9°F3.3°C 96% Calm Calm -- 29.96 in1014.6 mb - 0.00 in0.0 mm 0.00 in0.0 mm
03:15 AM 41.1°F5.1°C 39.5°F4.2°C 94% Calm Calm -- 29.95 in1014.2 mb - 0.00 in0.0 mm 0.00 in0.0 mm
03:30 AM 40.5°F4.7°C 38.4°F3.6°C 92% Calm Calm -- 29.95 in1014.2 mb - 0.00 in0.0 mm 0.00 in0.0 mm
03:45 AM 40.7°F4.8°C 38.3°F3.5°C 91% Calm Calm -- 29.94 in1013.9 mb - 0.00 in0.0 mm 0.00 in0.0 mm
04:00 AM 41.4°F5.2°C 38.1°F3.4°C 88% Calm Calm -- 29.94 in1013.9 mb - 0.00 in0.0 mm 0.00 in0.0 mm
04:15 AM 40.5°F4.7°C 37.5°F3.1°C 89% Calm Calm -- 29.93 in1013.5 mb - 0.00 in0.0 mm 0.00 in0.0 mm
04:30 AM 39.8°F4.3°C 37.4°F3.0°C 91% Calm Calm -- 29.94 in1013.9 mb - 0.00 in0.0 mm 0.00 in0.0 mm
04:45 AM 41.6°F5.3°C 38.0°F3.3°C 87% 2.3 mph S3.7 kmh S 4.6 mph7.4 kmh 29.93 in1013.5 mb - 0.00 in0.0 mm 0.00 in0.0 mm
05:00 AM 40.7°F4.8°C 37.4°F3.0°C 88% 5.8 mph S9.3 kmh S 5.8 mph9.3 kmh 29.94 in1013.9 mb - 0.00 in0.0 mm 0.00 in0.0 mm
05:15 AM 41.7°F5.4°C 37.8°F3.2°C 86% 5.8 mph SW9.3 kmh SW 10.4 mph16.7 kmh 29.93 in1013.5 mb - 0.00 in0.0 mm 0.00 in0.0 mm
05:30 AM 42.9°F6.1°C 38.1°F3.4°C 83% 5.8 mph WSW9.3 kmh WSW 9.2 mph14.8 kmh 29.94 in1013.9 mb - 0.00 in0.0 mm 0.00 in0.0 mm
05:45 AM 43.8°F6.6°C 38.3°F3.5°C 81% 5.8 mph WSW9.3 kmh WSW 4.6 mph7.4 kmh 29.93 in1013.5 mb - 0.00 in0.0 mm 0.00 in0.0 mm
06:00 AM 43.6°F6.4°C 38.2°F3.4°C 81% 5.8 mph WSW9.3 kmh WSW 6.9 mph11.1 kmh 29.94 in1013.9 mb - 0.00 in0.0 mm 0.00 in0.0 mm
06:15 AM 42.9°F6.1°C 38.1°F3.4°C 83% 3.5 mph WSW5.6 kmh WSW 4.6 mph7.4 kmh 29.97 in1014.9 mb - 0.00 in0.0 mm 0.00 in0.0 mm
06:30 AM 42.2°F5.7°C 37.7°F3.2°C 84% 2.3 mph WSW3.7 kmh WSW 2.3 mph3.7 kmh 29.98 in1015.2 mb - 0.00 in0.0 mm 0.00 in0.0 mm
06:45 AM 41.6°F5.3°C 37.7°F3.2°C 86% Calm Calm -- 29.98 in1015.2 mb - 0.00 in0.0 mm 0.00 in0.0 mm
07:00 AM 40.7°F4.8°C 37.4°F3.0°C 88% 1.2 mph WSW1.9 kmh WSW 2.3 mph3.7 kmh 29.98 in1015.2 mb - 0.00 in0.0 mm 0.00 in0.0 mm
07:15 AM 41.1°F5.1°C 37.5°F3.1°C 87% Calm Calm 1.2 mph1.9 kmh 29.98 in1015.2 mb - 0.00 in0.0 mm 0.00 in0.0 mm
07:30 AM 40.9°F4.9°C 37.3°F2.9°C 87% 4.6 mph WSW7.4 kmh WSW 4.6 mph7.4 kmh 29.98 in1015.2 mb - 0.00 in0.0 mm 0.00 in0.0 mm
07:45 AM 39.5°F4.2°C 37.4°F3.0°C 92% 2.3 mph WSW3.7 kmh WSW 2.3 mph3.7 kmh 29.99 in1015.6 mb - 0.00 in0.0 mm 0.00 in0.0 mm
08:00 AM 39.9°F4.4°C 37.8°F3.2°C 92% 1.2 mph WSW1.9 kmh WSW 1.2 mph1.9 kmh 30.00 in1015.9 mb - 0.00 in0.0 mm 0.00 in0.0 mm
08:15 AM 40.4°F4.7°C 38.0°F3.3°C 91% Calm Calm -- 30.00 in1015.9 mb - 0.00 in0.0 mm 0.00 in0.0 mm
08:30 AM 40.9°F4.9°C 38.5°F3.6°C 91% Calm Calm -- 30.00 in1015.9 mb - 0.00 in0.0 mm 0.00 in0.0 mm
08:45 AM 42.3°F5.7°C 39.8°F4.3°C 91% Calm Calm -- 29.99 in1015.6 mb - 0.00 in0.0 mm 0.00 in0.0 mm
09:00 AM 43.5°F6.4°C 39.9°F4.4°C 87% Calm Calm -- 29.99 in1015.6 mb - 0.00 in0.0 mm 0.00 in0.0 mm
09:15 AM 44.3°F6.8°C 40.1°F4.5°C 85% 2.3 mph NE3.7 kmh NE 3.5 mph5.6 kmh 29.99 in1015.6 mb - 0.00 in0.0 mm 0.00 in0.0 mm
09:30 AM 45.1°F7.3°C 40.6°F4.8°C 84% Calm Calm -- 29.99 in1015.6 mb - 0.00 in0.0 mm 0.00 in0.0 mm
09:45 AM 45.2°F7.3°C 40.6°F4.8°C 84% Calm Calm -- 29.99 in1015.6 mb - 0.00 in0.0 mm 0.00 in0.0 mm
10:00 AM 45.2°F7.3°C 41.3°F5.2°C 86% Calm Calm -- 30.00 in1015.9 mb - 0.00 in0.0 mm 0.00 in0.0 mm
10:15 AM 46.2°F7.9°C 40.0°F4.4°C 79% 2.3 mph NE3.7 kmh NE 3.5 mph5.6 kmh 29.99 in1015.6 mb - 0.00 in0.0 mm 0.00 in0.0 mm
10:30 AM 46.7°F8.2°C 40.5°F4.7°C 79% 1.2 mph NE1.9 kmh NE 2.3 mph3.7 kmh 29.99 in1015.6 mb - 0.00 in0.0 mm 0.00 in0.0 mm
10:45 AM 48.3°F9.1°C 40.8°F4.9°C 75% 1.2 mph NE1.9 kmh NE 4.6 mph7.4 kmh 29.98 in1015.2 mb - 0.00 in0.0 mm 0.00 in0.0 mm
11:00 AM 49.0°F9.4°C 42.4°F5.8°C 78% 4.6 mph NE7.4 kmh NE 5.8 mph9.3 kmh 29.98 in1015.2 mb - 0.00 in0.0 mm 0.00 in0.0 mm
11:15 AM 49.6°F9.8°C 44.0°F6.7°C 81% 2.3 mph NE3.7 kmh NE 5.8 mph9.3 kmh 29.98 in1015.2 mb - 0.00 in0.0 mm 0.00 in0.0 mm
11:30 AM 50.7°F10.4°C 44.8°F7.1°C 80% 5.8 mph NE9.3 kmh NE 9.2 mph14.8 kmh 29.97 in1014.9 mb - 0.00 in0.0 mm 0.00 in0.0 mm
11:45 AM 48.7°F9.3°C 43.5°F6.4°C 82% 4.6 mph NE7.4 kmh NE 5.8 mph9.3 kmh 29.98 in1015.2 mb - 0.00 in0.0 mm 0.00 in0.0 mm
12:00 PM 50.1°F10.1°C 45.5°F7.5°C 84% 5.8 mph ENE9.3 kmh ENE 10.4 mph16.7 kmh 29.97 in1014.9 mb - 0.00 in0.0 mm 0.00 in0.0 mm
12:15 PM 49.8°F9.9°C 44.9°F7.2°C 83% 5.8 mph ENE9.3 kmh ENE 6.9 mph11.1 kmh 29.98 in1015.2 mb - 0.00 in0.0 mm 0.00 in0.0 mm
12:30 PM 49.1°F9.5°C 44.8°F7.1°C 85% 3.5 mph NE5.6 kmh NE 4.6 mph7.4 kmh 29.97 in1014.9 mb - 0.00 in0.0 mm 0.00 in0.0 mm
12:45 PM 49.1°F9.5°C 45.4°F7.4°C 87% 6.9 mph NE11.1 kmh NE 10.4 mph16.7 kmh 29.97 in1014.9 mb - 0.00 in0.0 mm 0.00 in0.0 mm
01:00 PM 47.8°F8.8°C 44.1°F6.7°C 87% 1.2 mph NNE1.9 kmh NNE 3.5 mph5.6 kmh 29.98 in1015.2 mb - 0.00 in0.0 mm 0.00 in0.0 mm
01:15 PM 48.0°F8.9°C 44.4°F6.9°C 87% 10.4 mph W16.7 kmh W 12.7 mph20.4 kmh 29.98 in1015.2 mb - 0.03 in0.8 mm 0.03 in0.8 mm
01:30 PM 47.6°F8.7°C 40.4°F4.7°C 76% 2.3 mph NNW3.7 kmh NNW 4.6 mph7.4 kmh 29.97 in1014.9 mb - 0.00 in0.0 mm 0.03 in0.8 mm
01:45 PM 48.4°F9.1°C 42.2°F5.7°C 79% Calm Calm 3.5 mph5.6 kmh 29.97 in1014.9 mb - 0.00 in0.0 mm 0.03 in0.8 mm
02:00 PM 47.0°F8.3°C 41.5°F5.3°C 81% 3.5 mph S5.6 kmh S 5.8 mph9.3 kmh 29.98 in1015.2 mb - 0.00 in0.0 mm 0.03 in0.8 mm
02:15 PM 45.8°F7.7°C 39.7°F4.3°C 79% 15.0 mph WSW24.1 kmh WSW 19.6 mph31.5 kmh 29.97 in1014.9 mb - 0.00 in0.0 mm 0.03 in0.8 mm
02:30 PM 45.0°F7.2°C 39.5°F4.2°C 81% 12.7 mph WSW20.4 kmh WSW 13.8 mph22.2 kmh 29.97 in1014.9 mb - 0.00 in0.0 mm 0.03 in0.8 mm
02:45 PM 47.7°F8.7°C 41.5°F5.3°C 79% Calm Calm 5.8 mph9.3 kmh 29.97 in1014.9 mb - 0.00 in0.0 mm 0.03 in0.8 mm
03:00 PM 46.4°F8.0°C 40.0°F4.4°C 78% 4.6 mph W7.4 kmh W 4.6 mph7.4 kmh 29.98 in1015.2 mb - 0.00 in0.0 mm 0.03 in0.8 mm
03:15 PM 45.4°F7.4°C 40.9°F4.9°C 84% 3.5 mph NW5.6 kmh NW 3.5 mph5.6 kmh 29.98 in1015.2 mb - 0.00 in0.0 mm 0.03 in0.8 mm
03:30 PM 44.7°F7.1°C 41.4°F5.2°C 88% 4.6 mph WNW7.4 kmh WNW 4.6 mph7.4 kmh 29.99 in1015.6 mb - 0.00 in0.0 mm 0.03 in0.8 mm
03:45 PM 43.7°F6.5°C 41.2°F5.1°C 91% 5.8 mph WNW9.3 kmh WNW 6.9 mph11.1 kmh 30.00 in1015.9 mb - 0.03 in0.8 mm 0.06 in1.5 mm
04:00 PM 42.1°F5.6°C 39.9°F4.4°C 92% 4.6 mph NW7.4 kmh NW 4.6 mph7.4 kmh 30.01 in1016.3 mb - 0.02 in0.5 mm 0.08 in2.0 mm
04:15 PM 41.9°F5.5°C 40.0°F4.4°C 93% 2.3 mph NW3.7 kmh NW 4.6 mph7.4 kmh 30.00 in1015.9 mb - 0.00 in0.0 mm 0.08 in2.0 mm
04:30 PM 41.4°F5.2°C 39.8°F4.3°C 94% 4.6 mph WNW7.4 kmh WNW 5.8 mph9.3 kmh 30.02 in1016.6 mb - 0.00 in0.0 mm 0.08 in2.0 mm
04:45 PM 40.7°F4.8°C 39.1°F3.9°C 94% 5.8 mph NW9.3 kmh NW 6.9 mph11.1 kmh 30.03 in1016.9 mb - 0.00 in0.0 mm 0.08 in2.0 mm
05:00 PM 39.9°F4.4°C 38.1°F3.4°C 93% 10.4 mph W16.7 kmh W 18.4 mph29.6 kmh 30.04 in1017.3 mb - 0.04 in1.0 mm 0.12 in3.0 mm
05:15 PM 38.4°F3.6°C 36.6°F2.6°C 93% 8.1 mph W13.0 kmh W 11.5 mph18.5 kmh 30.05 in1017.6 mb - 0.05 in1.3 mm 0.17 in4.3 mm
05:30 PM 38.0°F3.3°C 36.2°F2.3°C 93% 3.5 mph W5.6 kmh W 5.8 mph9.3 kmh 30.05 in1017.6 mb - 0.03 in0.8 mm 0.19 in4.8 mm
05:45 PM 38.3°F3.5°C 36.7°F2.6°C 94% Calm Calm -- 30.05 in1017.6 mb - 0.00 in0.0 mm 0.19 in4.8 mm
06:00 PM 38.7°F3.7°C 37.1°F2.8°C 94% Calm Calm -- 30.04 in1017.3 mb - 0.00 in0.0 mm 0.19 in4.8 mm
06:15 PM 38.9°F3.8°C 37.4°F3.0°C 94% Calm Calm -- 30.05 in1017.6 mb - 0.00 in0.0 mm 0.19 in4.8 mm
06:30 PM 39.1°F3.9°C 37.5°F3.1°C 94% Calm Calm -- 30.06 in1017.9 mb - 0.00 in0.0 mm 0.19 in4.8 mm
06:45 PM 39.3°F4.1°C 37.7°F3.2°C 94% Calm Calm -- 30.05 in1017.6 mb - 0.00 in0.0 mm 0.19 in4.8 mm
07:00 PM 39.3°F4.1°C 37.7°F3.2°C 94% Calm Calm -- 30.05 in1017.6 mb - 0.01 in0.3 mm 0.20 in5.1 mm
07:15 PM 39.2°F4.0°C 37.6°F3.1°C 94% Calm Calm -- 30.06 in1017.9 mb - 0.00 in0.0 mm 0.20 in5.1 mm
07:30 PM 38.9°F3.8°C 37.3°F2.9°C 94% Calm Calm -- 30.07 in1018.3 mb - 0.00 in0.0 mm 0.20 in5.1 mm
07:45 PM 38.7°F3.7°C 37.1°F2.8°C 94% Calm Calm -- 30.07 in1018.3 mb - 0.00 in0.0 mm 0.20 in5.1 mm
08:00 PM 38.7°F3.7°C 37.4°F3.0°C 95% Calm Calm -- 30.08 in1018.6 mb - 0.00 in0.0 mm 0.20 in5.1 mm
08:15 PM 39.0°F3.9°C 37.7°F3.2°C 95% Calm Calm -- 30.07 in1018.3 mb - 0.00 in0.0 mm 0.20 in5.1 mm
08:30 PM 39.2°F4.0°C 37.9°F3.3°C 95% Calm Calm -- 30.07 in1018.3 mb - 0.00 in0.0 mm 0.20 in5.1 mm
08:45 PM 39.2°F4.0°C 37.9°F3.3°C 95% Calm Calm -- 30.08 in1018.6 mb - 0.00 in0.0 mm 0.20 in5.1 mm
09:00 PM 39.1°F3.9°C 37.8°F3.2°C 95% Calm Calm -- 30.09 in1019.0 mb - 0.00 in0.0 mm 0.20 in5.1 mm
09:15 PM 38.9°F3.8°C 37.6°F3.1°C 95% Calm Calm -- 30.08 in1018.6 mb - 0.00 in0.0 mm 0.20 in5.1 mm
09:30 PM 38.8°F3.8°C 37.5°F3.1°C 95% 2.3 mph W3.7 kmh W 3.5 mph5.6 kmh 30.09 in1019.0 mb - 0.00 in0.0 mm 0.20 in5.1 mm
09:45 PM 38.6°F3.7°C 37.3°F2.9°C 95% 3.5 mph W5.6 kmh W 3.5 mph5.6 kmh 30.09 in1019.0 mb - 0.00 in0.0 mm 0.20 in5.1 mm
10:00 PM 38.7°F3.7°C 37.4°F3.0°C 95% Calm Calm -- 30.10 in1019.3 mb - 0.00 in0.0 mm 0.20 in5.1 mm
10:15 PM 38.4°F3.6°C 37.1°F2.8°C 95% Calm Calm -- 30.09 in1019.0 mb - 0.00 in0.0 mm 0.20 in5.1 mm
10:30 PM 38.3°F3.5°C 37.0°F2.8°C 95% Calm Calm -- 30.10 in1019.3 mb - 0.00 in0.0 mm 0.20 in5.1 mm
10:45 PM 38.3°F3.5°C 37.0°F2.8°C 95% Calm Calm -- 30.10 in1019.3 mb - 0.00 in0.0 mm 0.20 in5.1 mm
11:00 PM 37.6°F3.1°C 36.3°F2.4°C 95% Calm Calm -- 30.10 in1019.3 mb - 0.00 in0.0 mm 0.20 in5.1 mm
11:15 PM 37.3°F2.9°C 35.7°F2.1°C 94% Calm Calm -- 30.10 in1019.3 mb - 0.00 in0.0 mm 0.20 in5.1 mm
11:30 PM 36.5°F2.5°C 35.0°F1.7°C 94% Calm Calm -- 30.10 in1019.3 mb - 0.00 in0.0 mm 0.20 in5.1 mm
11:45 PM 35.6°F2.0°C 34.0°F1.1°C 94% Calm Calm -- 30.11 in1019.6 mb - 0.00 in0.0 mm 0.20 in5.1 mm